Time;durP1;ratioP1;P1;durP2;ratioP2;P2;SDS_P1;SDS_P2;PMS_P1;PMS_P2;Temp;Humidity;BMP_temperature;BMP_pressure;BME280_temperature;BME280_humidity;BME280_pressure;Samples;Min_cycle;Max_cycle;Signal;HPM_P1;HPM_P2
2023/03/19 00:01:27;;;;;;;21.63;19.63;;;10.20;99.90;;;;;;4986084;28;20046;-52
2023/03/19 00:03:53;;;;;;;22.52;20.42;;;10.20;99.90;;;;;;4984753;28;20082;-50
2023/03/19 00:06:19;;;;;;;20.08;18.27;;;10.20;99.90;;;;;;4981619;28;20527;-53
2023/03/19 00:08:45;;;;;;;21.02;18.88;;;10.20;99.90;;;;;;4987211;28;20233;-51
2023/03/19 00:11:12;;;;;;;21.83;19.63;;;10.20;99.90;;;;;;4987214;28;20095;-50
2023/03/19 00:13:38;;;;;;;21.60;19.40;;;10.20;99.90;;;;;;4983939;28;20485;-51
2023/03/19 00:16:06;;;;;;;21.10;19.10;;;10.30;99.90;;;;;;4985387;28;20057;-51
2023/03/19 00:18:31;;;;;;;22.05;19.75;;;10.30;99.90;;;;;;4984255;28;20038;-50
2023/03/19 00:20:57;;;;;;;20.35;18.25;;;10.30;99.90;;;;;;4982347;28;20173;-54
2023/03/19 00:23:23;;;;;;;20.42;18.10;;;10.30;99.90;;;;;;4989700;28;20042;-49
2023/03/19 00:25:49;;;;;;;18.60;16.90;;;10.30;99.90;;;;;;4990794;28;20069;-50
2023/03/19 00:28:15;;;;;;;18.02;16.23;;;10.30;99.90;;;;;;5002098;28;20116;-53
2023/03/19 00:30:43;;;;;;;17.98;15.85;;;10.30;99.90;;;;;;4992145;28;21865;-53
2023/03/19 00:33:09;;;;;;;;;;;10.30;99.90;;;;;;4981969;28;20140;-53
2023/03/19 00:35:34;;;;;;;15.38;14.02;;;10.40;99.90;;;;;;4989965;28;19980;-50
2023/03/19 00:38:00;;;;;;;15.02;13.55;;;10.50;99.90;;;;;;4987762;28;20116;-52
2023/03/19 00:40:26;;;;;;;14.80;13.32;;;10.50;99.90;;;;;;4987757;28;20372;-51
2023/03/19 00:42:51;;;;;;;13.57;12.18;;;10.50;99.90;;;;;;4989683;28;20042;-54
2023/03/19 00:45:17;;;;;;;14.73;13.23;;;10.50;99.90;;;;;;4992966;28;20490;-52
2023/03/19 00:47:43;;;;;;;14.48;13.13;;;10.60;99.90;;;;;;4988014;28;20053;-49
2023/03/19 00:50:09;;;;;;;14.18;12.80;;;10.60;99.90;;;;;;4986696;28;20397;-50
2023/03/19 00:52:35;;;;;;;14.00;12.60;;;10.70;99.90;;;;;;4990045;28;20054;-50
2023/03/19 00:55:01;;;;;;;15.10;13.52;;;10.70;99.90;;;;;;4984452;28;20467;-52
2023/03/19 00:57:26;;;;;;;14.23;12.73;;;10.70;99.90;;;;;;4987108;28;20512;-52
2023/03/19 00:59:52;;;;;;;15.52;14.02;;;10.70;99.90;;;;;;4989903;28;20046;-51
2023/03/19 01:02:17;;;;;;;15.18;13.52;;;10.70;99.90;;;;;;4991239;28;20089;-51
2023/03/19 01:04:43;;;;;;;15.80;14.20;;;10.70;99.90;;;;;;4990700;28;20137;-52
2023/03/19 01:07:09;;;;;;;15.30;13.88;;;10.70;99.90;;;;;;4989359;28;20061;-49
2023/03/19 01:09:34;;;;;;;15.48;13.98;;;10.70;99.90;;;;;;4990929;28;20046;-52
2023/03/19 01:12:03;;;;;;;14.52;13.23;;;10.70;99.90;;;;;;4987145;28;20072;-49
2023/03/19 01:14:30;;;;;;;15.52;13.80;;;10.70;99.90;;;;;;4984481;28;20432;-51
2023/03/19 01:16:56;;;;;;;14.93;13.43;;;10.70;99.90;;;;;;4989452;28;20218;-50
2023/03/19 01:19:21;;;;;;;14.35;12.90;;;10.80;99.90;;;;;;4989397;28;20122;-51
2023/03/19 01:21:48;;;;;;;14.63;13.13;;;10.80;99.90;;;;;;4984856;28;20050;-52
2023/03/19 01:24:15;;;;;;;14.15;12.77;;;10.80;99.90;;;;;;4981883;28;20137;-50
2023/03/19 01:26:41;;;;;;;15.60;13.80;;;10.90;99.90;;;;;;4988928;28;20042;-52
2023/03/19 01:29:07;;;;;;;14.15;12.73;;;10.90;99.90;;;;;;4986104;28;20520;-53
2023/03/19 01:31:33;;;;;;;12.93;11.63;;;10.90;99.90;;;;;;4988513;28;20038;-49
2023/03/19 01:33:59;;;;;;;13.38;11.82;;;10.80;99.90;;;;;;4981364;28;20497;-50
2023/03/19 01:36:25;;;;;;;12.77;11.48;;;10.80;99.90;;;;;;4987868;28;20085;-50
2023/03/19 01:38:50;;;;;;;12.85;11.60;;;10.80;99.90;;;;;;4986703;28;20484;-50
2023/03/19 01:41:16;;;;;;;12.10;10.90;;;10.80;99.90;;;;;;4985430;28;20050;-53
2023/03/19 01:43:42;;;;;;;12.50;10.75;;;10.90;99.90;;;;;;4984409;28;20034;-50
2023/03/19 01:46:19;;;;;;;12.70;11.60;;;10.80;99.90;;;;;;4985854;28;20110;-50
2023/03/19 01:48:49;;;;;;;11.82;10.73;;;10.80;99.90;;;;;;4987433;28;20085;-50
2023/03/19 01:51:19;;;;;;;11.77;10.57;;;10.80;99.90;;;;;;4989283;28;20512;-52
2023/03/19 01:53:52;;;;;;;12.02;10.73;;;10.80;99.90;;;;;;4988855;28;20081;-53
2023/03/19 01:56:27;;;;;;;11.32;10.23;;;10.80;99.90;;;;;;4989082;28;20030;-49
2023/03/19 01:58:56;;;;;;;11.30;10.15;;;10.70;99.90;;;;;;4986689;28;20402;-50
2023/03/19 02:01:22;;;;;;;11.07;9.98;;;10.70;99.90;;;;;;4990275;28;20441;-50
2023/03/19 02:03:50;;;;;;;11.13;9.93;;;10.60;99.90;;;;;;4983489;28;20070;-50
2023/03/19 02:06:18;;;;;;;9.18;8.27;;;10.60;99.90;;;;;;4987464;28;20038;-50
2023/03/19 02:08:45;;;;;;;9.30;8.40;;;10.60;99.90;;;;;;4985034;28;20089;-50
2023/03/19 02:11:10;;;;;;;8.85;7.97;;;10.60;99.90;;;;;;4987464;28;20045;-51
2023/03/19 02:13:37;;;;;;;9.82;8.65;;;10.50;99.90;;;;;;4986987;28;20062;-54
2023/03/19 02:16:03;;;;;;;10.02;9.02;;;10.50;99.90;;;;;;4985412;28;20093;-52
2023/03/19 02:18:30;;;;;;;11.15;8.73;;;10.50;99.90;;;;;;4989680;28;20046;-51
2023/03/19 02:21:01;;;;;;;10.00;9.00;;;10.40;99.90;;;;;;4984473;28;20443;-53
2023/03/19 02:23:41;;;;;;;8.63;7.82;;;10.40;99.90;;;;;;4984733;28;20316;-54
2023/03/19 02:26:22;;;;;;;8.80;7.85;;;10.40;99.90;;;;;;4983081;28;20038;-50
2023/03/19 02:28:49;;;;;;;8.50;7.45;;;10.30;99.90;;;;;;4982577;28;20053;-50
2023/03/19 02:31:17;;;;;;;8.70;7.20;;;10.30;99.90;;;;;;4979846;28;20534;-50
2023/03/19 02:33:43;;;;;;;7.38;6.57;;;10.20;99.90;;;;;;4986223;28;20122;-50
2023/03/19 02:36:18;;;;;;;8.70;6.95;;;10.20;99.90;;;;;;4984291;28;20393;-51
2023/03/19 02:38:46;;;;;;;6.65;6.03;;;10.20;99.90;;;;;;4987155;28;20039;-51
2023/03/19 02:41:12;;;;;;;6.78;6.10;;;10.20;99.90;;;;;;4986442;28;20408;-50
2023/03/19 02:43:39;;;;;;;7.18;5.55;;;10.20;99.90;;;;;;4988751;28;20035;-50
2023/03/19 02:46:09;;;;;;;7.45;5.72;;;10.20;99.90;;;;;;5002084;28;20038;-50
2023/03/19 02:48:36;;;;;;;7.13;6.43;;;10.20;99.90;;;;;;5003914;28;20049;-50
2023/03/19 02:51:02;;;;;;;6.93;6.22;;;10.10;99.90;;;;;;4989695;28;20046;-51
2023/03/19 02:53:28;;;;;;;5.55;5.05;;;10.10;99.90;;;;;;4984601;28;20681;-55
2023/03/19 02:55:53;;;;;;;6.68;4.85;;;10.00;99.90;;;;;;4986654;28;20141;-50
2023/03/19 02:58:19;;;;;;;6.18;4.68;;;10.10;99.90;;;;;;4987849;28;20053;-51
2023/03/19 03:00:45;;;;;;;5.85;5.28;;;10.10;99.90;;;;;;4980772;28;20505;-50
2023/03/19 03:03:11;;;;;;;6.07;4.90;;;10.00;99.90;;;;;;4986192;28;20126;-51
2023/03/19 03:05:37;;;;;;;5.00;4.50;;;10.00;99.90;;;;;;4988568;28;20038;-50
2023/03/19 03:08:03;;;;;;;5.32;4.20;;;10.00;99.90;;;;;;4986532;28;20034;-50
2023/03/19 03:10:30;;;;;;;5.50;4.30;;;10.00;99.90;;;;;;4987213;28;20053;-50
2023/03/19 03:12:57;;;;;;;4.15;3.72;;;10.00;99.90;;;;;;4984413;28;20051;-50
2023/03/19 03:15:23;;;;;;;3.85;3.53;;;10.00;99.90;;;;;;4986168;28;20039;-51
2023/03/19 03:17:49;;;;;;;4.32;3.92;;;10.00;99.90;;;;;;4968744;28;20054;-51
2023/03/19 03:20:16;;;;;;;3.65;3.35;;;10.00;99.90;;;;;;4984351;28;20145;-49
2023/03/19 03:22:43;;;;;;;4.13;3.72;;;10.00;99.90;;;;;;4986274;28;20049;-52
2023/03/19 03:25:10;;;;;;;4.15;3.40;;;10.00;99.90;;;;;;4989316;28;20052;-50
2023/03/19 03:27:36;;;;;;;4.68;3.80;;;10.00;99.90;;;;;;4986172;28;20108;-51
2023/03/19 03:30:04;;;;;;;4.63;3.58;;;9.90;99.90;;;;;;4976664;28;20058;-51
2023/03/19 03:32:29;;;;;;;4.63;3.97;;;9.90;99.90;;;;;;4982794;28;20434;-53
2023/03/19 03:34:55;;;;;;;5.50;4.10;;;9.80;99.90;;;;;;4983341;28;20044;-51
2023/03/19 03:37:21;;;;;;;3.92;3.60;;;9.80;99.90;;;;;;4981704;28;20045;-52
2023/03/19 03:39:47;;;;;;;4.10;3.70;;;9.80;99.90;;;;;;4982027;28;20046;-51
2023/03/19 03:42:13;;;;;;;3.90;3.05;;;9.80;99.90;;;;;;4986171;28;20114;-50
2023/03/19 03:44:38;;;;;;;5.70;3.72;;;9.80;99.90;;;;;;4988047;28;20037;-51
2023/03/19 03:47:05;;;;;;;3.90;3.42;;;9.80;99.90;;;;;;4991620;28;20050;-51
2023/03/19 03:49:31;;;;;;;4.63;3.65;;;9.80;99.90;;;;;;4989267;28;20213;-50
2023/03/19 03:51:56;;;;;;;7.20;3.95;;;9.80;99.90;;;;;;4987495;28;20133;-50
2023/03/19 03:54:22;;;;;;;3.67;3.38;;;9.80;99.90;;;;;;4983980;28;20049;-50
2023/03/19 03:56:49;;;;;;;5.15;3.60;;;9.80;99.90;;;;;;4990121;28;20429;-52
2023/03/19 03:59:15;;;;;;;3.97;3.55;;;9.80;99.90;;;;;;4988604;28;20074;-53
2023/03/19 04:01:41;;;;;;;5.38;4.35;;;9.80;99.90;;;;;;4988619;28;20105;-52
2023/03/19 04:04:06;;;;;;;5.05;4.07;;;9.80;99.90;;;;;;4988087;28;20567;-50
2023/03/19 04:06:33;;;;;;;4.15;3.80;;;9.90;99.90;;;;;;4988548;28;20512;-50
2023/03/19 04:08:59;;;;;;;4.47;4.07;;;9.80;99.90;;;;;;4987808;28;20050;-51
2023/03/19 04:11:25;;;;;;;6.57;3.92;;;9.90;99.90;;;;;;4989169;28;20080;-52
2023/03/19 04:13:54;;;;;;;4.28;3.88;;;9.90;99.90;;;;;;4989745;28;20062;-53
2023/03/19 04:16:20;;;;;;;4.32;3.92;;;10.00;99.90;;;;;;4995963;28;20038;-52
2023/03/19 04:18:45;;;;;;;4.63;3.85;;;10.00;99.90;;;;;;4990225;28;20096;-54
2023/03/19 04:21:11;;;;;;;4.30;3.90;;;10.00;99.90;;;;;;4983825;28;20492;-51
2023/03/19 04:23:37;;;;;;;4.43;4.03;;;10.00;99.90;;;;;;4990828;28;20093;-49
2023/03/19 04:26:05;;;;;;;5.03;4.40;;;10.10;99.90;;;;;;4991336;28;20034;-49
2023/03/19 04:28:31;;;;;;;4.38;4.07;;;10.00;99.90;;;;;;4989326;28;20480;-49
2023/03/19 04:31:03;;;;;;;4.88;4.03;;;10.10;99.90;;;;;;4989507;28;20061;-53
2023/03/19 04:33:29;;;;;;;7.63;4.10;;;10.00;99.90;;;;;;4989624;28;20050;-54
2023/03/19 04:35:55;;;;;;;5.18;4.30;;;10.00;99.90;;;;;;4990550;28;20045;-50
2023/03/19 04:38:21;;;;;;;5.65;4.30;;;10.00;99.90;;;;;;4981583;28;20400;-49
2023/03/19 04:40:47;;;;;;;5.15;4.35;;;10.00;99.90;;;;;;4986802;28;20346;-51
2023/03/19 04:43:14;;;;;;;4.95;4.55;;;10.00;99.90;;;;;;4984050;28;20030;-54
2023/03/19 04:45:40;;;;;;;5.20;4.70;;;10.00;99.90;;;;;;4978702;28;20092;-52
2023/03/19 04:48:06;;;;;;;4.68;4.10;;;9.90;99.90;;;;;;4986541;28;20042;-51
2023/03/19 04:50:32;;;;;;;5.88;4.85;;;9.90;99.90;;;;;;4988676;28;20500;-53
2023/03/19 04:52:57;;;;;;;5.50;4.30;;;9.90;99.90;;;;;;4984408;28;20054;-53
2023/03/19 04:55:23;;;;;;;5.13;4.63;;;9.90;99.90;;;;;;4986882;28;20039;-51
2023/03/19 04:57:48;;;;;;;4.88;4.22;;;9.80;99.90;;;;;;4990923;28;20050;-51
2023/03/19 05:00:15;;;;;;;5.25;4.65;;;9.80;99.90;;;;;;4989852;28;20172;-51
2023/03/19 05:02:41;;;;;;;5.93;4.57;;;9.80;99.90;;;;;;4979861;28;20050;-51
2023/03/19 05:05:09;;;;;;;4.90;4.50;;;9.70;99.90;;;;;;4989090;28;20069;-50
2023/03/19 05:07:35;;;;;;;5.28;4.60;;;9.70;99.90;;;;;;4988530;28;20034;-50
2023/03/19 05:10:01;;;;;;;5.32;4.82;;;9.70;99.90;;;;;;4987023;28;20042;-53
2023/03/19 05:12:27;;;;;;;5.40;4.82;;;9.70;99.90;;;;;;4988065;28;20042;-52
2023/03/19 05:14:53;;;;;;;5.85;5.28;;;9.70;99.90;;;;;;4987824;28;20501;-51
2023/03/19 05:17:18;;;;;;;5.78;5.00;;;9.70;99.90;;;;;;4988659;28;20042;-51
2023/03/19 05:19:44;;;;;;;5.30;4.63;;;9.70;99.90;;;;;;5002029;28;20404;-51
2023/03/19 05:22:09;;;;;;;6.10;4.85;;;9.70;99.90;;;;;;4988971;28;20436;-51
2023/03/19 05:24:35;;;;;;;5.10;4.70;;;9.60;99.90;;;;;;4987558;28;20125;-49
2023/03/19 05:27:01;;;;;;;5.47;4.93;;;9.60;99.90;;;;;;4989485;28;20053;-49
2023/03/19 05:29:27;;;;;;;4.95;4.45;;;9.60;99.90;;;;;;4987160;28;20141;-52
2023/03/19 05:31:53;;;;;;;6.82;5.00;;;9.60;99.90;;;;;;4988829;28;20039;-50
2023/03/19 05:34:18;;;;;;;5.68;5.07;;;9.50;99.90;;;;;;4988447;28;20505;-49
2023/03/19 05:36:44;;;;;;;5.43;4.90;;;9.50;99.90;;;;;;4984891;28;20074;-51
2023/03/19 05:39:10;;;;;;;5.38;4.95;;;9.50;99.90;;;;;;4986741;28;20354;-51
2023/03/19 05:41:35;;;;;;;5.70;5.20;;;9.50;99.90;;;;;;4987809;28;20065;-49
2023/03/19 05:44:01;;;;;;;5.75;5.18;;;9.50;99.90;;;;;;4987122;28;20038;-49
2023/03/19 05:46:26;;;;;;;5.75;5.05;;;9.50;99.90;;;;;;4988778;28;20045;-49
2023/03/19 05:48:52;;;;;;;5.75;5.18;;;9.50;99.90;;;;;;4992115;28;20050;-51
2023/03/19 05:51:18;;;;;;;6.72;5.22;;;9.50;99.90;;;;;;4985632;28;20054;-54
2023/03/19 05:53:43;;;;;;;5.82;5.32;;;9.50;99.90;;;;;;4985921;28;20203;-49
2023/03/19 05:56:10;;;;;;;6.28;5.50;;;9.50;99.90;;;;;;4989712;28;20050;-49
2023/03/19 05:58:36;;;;;;;5.55;5.07;;;9.50;99.90;;;;;;4987119;28;20118;-49
2023/03/19 06:01:02;;;;;;;6.68;6.05;;;9.50;99.90;;;;;;5001782;28;20554;-53
2023/03/19 06:03:28;;;;;;;7.47;6.53;;;9.50;99.90;;;;;;4989230;28;20529;-51
2023/03/19 06:05:53;;;;;;;6.95;6.32;;;9.50;99.90;;;;;;5003052;28;20133;-49
2023/03/19 06:08:20;;;;;;;6.97;6.25;;;9.60;99.90;;;;;;4984752;28;20529;-51
2023/03/19 06:10:46;;;;;;;7.15;6.45;;;9.60;99.90;;;;;;4985002;28;20050;-52
2023/03/19 06:13:11;;;;;;;7.43;6.72;;;9.60;99.90;;;;;;4985152;28;20376;-54
2023/03/19 06:15:37;;;;;;;8.50;6.57;;;9.60;99.90;;;;;;4986061;28;20096;-54
2023/03/19 06:18:03;;;;;;;6.50;5.90;;;9.60;99.90;;;;;;4985882;28;20074;-49
2023/03/19 06:20:29;;;;;;;7.28;6.57;;;9.60;99.90;;;;;;4986459;28;20038;-51
2023/03/19 06:22:55;;;;;;;8.23;6.07;;;9.60;99.90;;;;;;4987331;28;20546;-50
2023/03/19 06:25:20;;;;;;;8.65;7.43;;;9.60;99.90;;;;;;4986802;28;20042;-53
2023/03/19 06:27:46;;;;;;;8.77;7.88;;;9.70;99.90;;;;;;4986852;28;20054;-54
2023/03/19 06:30:12;;;;;;;7.72;7.03;;;9.80;99.90;;;;;;4987032;28;20397;-54
2023/03/19 06:32:39;;;;;;;9.00;8.05;;;9.80;99.90;;;;;;4986921;28;20038;-51
2023/03/19 06:35:05;;;;;;;8.13;7.30;;;9.80;99.90;;;;;;4988798;28;20125;-51
2023/03/19 06:37:31;;;;;;;7.65;6.60;;;9.80;99.90;;;;;;4988468;28;20050;-54
2023/03/19 06:39:57;;;;;;;10.43;7.28;;;9.90;99.90;;;;;;4988832;28;20424;-54
2023/03/19 06:42:23;;;;;;;8.18;7.35;;;9.90;99.90;;;;;;4987231;28;20050;-51
2023/03/19 06:44:49;;;;;;;9.27;7.65;;;10.00;99.90;;;;;;4985117;28;20038;-50
2023/03/19 06:47:14;;;;;;;8.10;7.30;;;10.00;99.90;;;;;;4986164;28;20042;-51
2023/03/19 06:49:40;;;;;;;8.38;7.47;;;10.10;99.90;;;;;;4984744;28;20046;-55
2023/03/19 06:52:06;;;;;;;10.32;7.93;;;10.20;99.90;;;;;;4988312;28;20038;-54
2023/03/19 06:54:32;;;;;;;8.65;7.75;;;10.30;99.90;;;;;;4982171;28;20337;-52
2023/03/19 06:56:58;;;;;;;9.48;7.65;;;10.30;99.90;;;;;;4980744;28;20100;-53
2023/03/19 06:59:24;;;;;;;8.55;7.28;;;10.40;99.90;;;;;;4982778;28;20089;-54
2023/03/19 07:01:51;;;;;;;9.00;7.45;;;10.40;99.90;;;;;;4987848;28;20081;-55
2023/03/19 07:04:17;;;;;;;8.10;7.38;;;10.40;99.90;;;;;;4983514;28;20078;-53
2023/03/19 07:06:43;;;;;;;8.45;7.53;;;10.40;99.90;;;;;;4989169;28;20046;-49
2023/03/19 07:09:09;;;;;;;9.02;8.23;;;10.40;99.90;;;;;;4981481;28;20053;-50
2023/03/19 07:11:35;;;;;;;9.30;8.32;;;10.40;99.90;;;;;;4988091;28;20053;-54
2023/03/19 07:14:00;;;;;;;9.60;8.70;;;10.40;99.90;;;;;;4985123;28;20040;-54
2023/03/19 07:16:26;;;;;;;9.40;8.50;;;10.40;99.90;;;;;;4988059;28;20091;-53
2023/03/19 07:18:51;;;;;;;10.80;9.23;;;10.50;99.90;;;;;;4983809;28;20042;-52
2023/03/19 07:21:17;;;;;;;9.68;8.73;;;10.50;99.90;;;;;;4986398;28;20108;-54
2023/03/19 07:23:45;;;;;;;10.88;9.80;;;10.60;99.90;;;;;;4986491;28;20507;-51
2023/03/19 07:26:12;;;;;;;11.15;10.05;;;10.70;99.90;;;;;;4990481;28;20038;-51
2023/03/19 07:28:37;;;;;;;12.93;10.60;;;11.00;99.90;;;;;;4984599;28;20038;-50
2023/03/19 07:31:03;;;;;;;11.55;10.45;;;11.00;99.90;;;;;;4988738;28;20045;-54
2023/03/19 07:33:29;;;;;;;12.13;10.60;;;11.00;99.90;;;;;;4982773;28;20045;-51
2023/03/19 07:35:55;;;;;;;12.38;11.07;;;10.90;99.90;;;;;;4985804;28;20627;-53
2023/03/19 07:38:20;;;;;;;11.65;10.55;;;11.00;99.90;;;;;;4984441;28;20381;-51
2023/03/19 07:40:46;;;;;;;12.23;11.05;;;11.30;99.90;;;;;;4976192;28;20034;-50
2023/03/19 07:43:12;;;;;;;12.50;11.13;;;11.20;99.90;;;;;;4985247;28;20476;-53
2023/03/19 07:45:37;;;;;;;12.43;11.15;;;11.40;99.90;;;;;;4983209;28;20497;-51
2023/03/19 07:48:03;;;;;;;13.57;12.18;;;11.30;99.90;;;;;;4986193;28;21848;-51
2023/03/19 07:50:30;;;;;;;12.38;11.15;;;11.40;99.90;;;;;;4985496;28;20177;-50
2023/03/19 07:52:55;;;;;;;13.57;12.18;;;11.40;99.90;;;;;;4987557;28;20092;-50
2023/03/19 07:55:21;;;;;;;13.15;11.75;;;11.50;99.90;;;;;;4985364;28;20488;-50
2023/03/19 07:57:47;;;;;;;11.40;10.30;;;11.50;99.90;;;;;;4986058;28;20042;-50
2023/03/19 08:00:13;;;;;;;12.32;11.23;;;11.50;99.90;;;;;;4985202;28;20053;-51
2023/03/19 08:02:39;;;;;;;12.80;11.60;;;11.60;99.90;;;;;;4982545;28;20046;-52
2023/03/19 08:05:05;;;;;;;12.75;11.45;;;11.60;99.90;;;;;;4982367;28;20161;-51
2023/03/19 08:07:31;;;;;;;13.52;11.70;;;11.70;99.90;;;;;;4985917;28;20128;-50
2023/03/19 08:09:57;;;;;;;13.23;11.82;;;11.70;99.90;;;;;;4987224;28;20057;-51
2023/03/19 08:12:26;;;;;;;13.43;11.45;;;11.70;99.90;;;;;;4983746;28;21447;-50
2023/03/19 08:14:51;;;;;;;12.48;11.27;;;11.70;99.90;;;;;;4984724;28;20097;-54
2023/03/19 08:17:17;;;;;;;14.00;12.27;;;11.80;99.90;;;;;;5000143;28;20034;-51
2023/03/19 08:19:43;;;;;;;13.07;11.88;;;11.90;99.90;;;;;;4983634;28;20456;-50
2023/03/19 08:22:09;;;;;;;13.80;12.40;;;12.00;99.90;;;;;;4984881;28;20034;-53
2023/03/19 08:24:35;;;;;;;13.23;11.85;;;12.10;99.90;;;;;;4984457;28;20116;-53
2023/03/19 08:27:00;;;;;;;14.00;12.30;;;12.20;99.90;;;;;;4987329;28;20042;-51
2023/03/19 08:29:26;;;;;;;13.20;11.90;;;12.30;99.90;;;;;;4984173;28;20045;-51
2023/03/19 08:31:57;;;;;;;12.00;10.90;;;12.40;99.90;;;;;;4988231;28;20038;-52
2023/03/19 08:34:23;;;;;;;12.10;10.90;;;12.40;99.90;;;;;;4990570;28;20050;-52
2023/03/19 08:36:49;;;;;;;13.00;11.80;;;12.40;99.90;;;;;;4986755;28;20118;-51
2023/03/19 08:39:15;;;;;;;11.93;10.75;;;12.60;99.90;;;;;;4989112;28;20607;-49
2023/03/19 08:41:41;;;;;;;13.18;11.88;;;12.50;99.90;;;;;;4985082;28;20038;-51
2023/03/19 08:44:07;;;;;;;13.02;11.82;;;12.50;99.90;;;;;;4989972;28;21252;-52
2023/03/19 08:46:32;;;;;;;13.00;11.80;;;12.50;99.90;;;;;;4984472;28;20457;-51
2023/03/19 08:48:59;;;;;;;12.00;10.90;;;12.50;99.90;;;;;;4987909;28;20464;-49
2023/03/19 08:51:27;;;;;;;12.45;11.25;;;12.40;99.90;;;;;;4990107;28;20584;-51
2023/03/19 08:53:53;;;;;;;13.90;12.50;;;12.40;99.90;;;;;;4991383;28;20057;-50
2023/03/19 08:56:19;;;;;;;13.65;12.40;;;12.40;99.90;;;;;;4984543;28;20040;-53
2023/03/19 08:58:45;;;;;;;12.80;11.57;;;12.40;99.90;;;;;;4990246;28;20051;-52
2023/03/19 09:01:12;;;;;;;12.52;11.27;;;12.30;99.90;;;;;;4990969;28;20476;-49
2023/03/19 09:03:39;;;;;;;12.30;11.20;;;12.20;99.90;;;;;;4989654;28;20460;-53
2023/03/19 09:06:07;;;;;;;13.88;11.65;;;12.20;99.90;;;;;;4984389;28;20565;-53
2023/03/19 09:08:35;;;;;;;13.25;11.85;;;12.10;99.90;;;;;;4983979;28;20042;-50
2023/03/19 09:11:01;;;;;;;13.77;11.37;;;12.00;99.90;;;;;;4989791;28;20045;-50
2023/03/19 09:13:26;;;;;;;12.57;11.38;;;11.90;99.90;;;;;;4988720;28;20293;-50
2023/03/19 09:15:52;;;;;;;13.95;12.30;;;11.90;99.90;;;;;;4989264;28;20935;-51
2023/03/19 09:18:24;;;;;;;13.20;11.82;;;12.10;99.90;;;;;;4991163;28;20442;-51
2023/03/19 09:20:51;;;;;;;13.35;12.10;;;12.30;99.90;;;;;;4990335;28;20057;-50
2023/03/19 09:23:17;;;;;;;12.90;11.63;;;12.50;99.90;;;;;;4990177;28;20043;-50
2023/03/19 09:25:42;;;;;;;12.75;11.50;;;12.60;99.90;;;;;;4988729;28;20397;-52
2023/03/19 09:28:08;;;;;;;12.50;11.40;;;12.80;99.90;;;;;;4989093;28;20039;-50
2023/03/19 09:30:34;;;;;;;13.00;11.52;;;12.80;99.90;;;;;;4987593;28;20125;-52
2023/03/19 09:33:00;;;;;;;12.32;11.23;;;12.80;99.90;;;;;;4986819;28;20062;-50
2023/03/19 09:35:30;;;;;;;11.57;10.43;;;12.80;99.90;;;;;;4985622;28;20039;-51
2023/03/19 09:37:56;;;;;;;11.25;10.15;;;12.80;99.90;;;;;;4986700;28;20042;-50
2023/03/19 09:40:27;;;;;;;11.25;10.05;;;12.90;99.90;;;;;;4986498;28;20485;-50
2023/03/19 09:43:05;;;;;;;11.10;10.10;;;12.90;99.90;;;;;;5002024;28;20073;-50
2023/03/19 09:45:34;;;;;;;10.98;9.88;;;13.00;99.90;;;;;;4982291;28;20047;-52
2023/03/19 09:48:17;;;;;;;11.30;10.23;;;13.00;99.90;;;;;;5001294;28;20176;-51
2023/03/19 09:50:45;;;;;;;10.73;9.50;;;13.10;99.90;;;;;;4990096;28;20089;-53
2023/03/19 09:53:39;;;;;;;11.43;10.18;;;13.20;99.90;;;;;;4989448;28;21642;-52
2023/03/19 09:56:08;;;;;;;11.15;10.05;;;13.50;99.90;;;;;;5005544;28;20161;-52
2023/03/19 09:58:35;;;;;;;11.80;10.70;;;13.80;99.90;;;;;;4989232;28;20101;-51
2023/03/19 10:01:02;;;;;;;11.18;10.10;;;14.00;99.90;;;;;;4989587;28;20053;-52
2023/03/19 10:03:47;;;;;;;10.93;9.93;;;14.10;99.90;;;;;;4988946;28;20416;-51
2023/03/19 10:06:25;;;;;;;10.45;9.50;;;14.20;99.90;;;;;;4989427;28;20447;-51
2023/03/19 10:08:59;;;;;;;11.15;10.25;;;14.10;99.90;;;;;;4991530;28;20112;-51
2023/03/19 10:11:40;;;;;;;11.50;10.40;;;14.10;99.90;;;;;;4983625;28;20046;-51
2023/03/19 10:14:05;;;;;;;11.05;10.00;;;14.10;99.90;;;;;;4989137;28;20054;-51
2023/03/19 10:16:33;;;;;;;11.52;10.45;;;14.00;99.90;;;;;;4989018;28;20046;-49
2023/03/19 10:19:03;;;;;;;11.30;10.20;;;14.00;99.90;;;;;;4987696;28;20034;-50
2023/03/19 10:21:58;;;;;;;10.95;9.95;;;14.10;99.90;;;;;;5003378;28;20050;-51
2023/03/19 10:24:32;;;;;;;11.15;10.15;;;14.30;99.90;;;;;;4988638;28;20523;-55
2023/03/19 10:27:01;;;;;;;11.00;9.90;;;14.40;99.90;;;;;;4984570;28;20071;-53
2023/03/19 10:29:27;;;;;;;12.30;10.73;;;14.40;99.90;;;;;;4987918;28;20110;-53
2023/03/19 10:32:08;;;;;;;12.05;10.60;;;14.40;99.90;;;;;;4989297;28;20038;-52
2023/03/19 10:34:36;;;;;;;12.95;10.52;;;14.50;99.90;;;;;;4988681;28;20042;-53
2023/03/19 10:37:02;;;;;;;;;;;14.60;99.90;;;;;;4987090;28;20487;-51
2023/03/19 10:39:31;;;;;;;12.23;11.02;;;14.70;99.90;;;;;;4987038;28;19929;-50
2023/03/19 10:42:07;;;;;;;12.73;11.48;;;14.80;99.90;;;;;;4996230;28;20114;-50
2023/03/19 10:44:55;;;;;;;12.85;11.07;;;14.80;99.90;;;;;;4994897;28;20221;-51
2023/03/19 10:47:25;;;;;;;12.18;11.00;;;15.10;99.90;;;;;;4993257;28;20046;-51
2023/03/19 10:49:50;;;;;;;13.82;12.38;;;15.40;99.90;;;;;;5003788;28;20140;-50
2023/03/19 10:52:32;;;;;;;12.15;10.90;;;15.50;99.90;;;;;;4994150;28;20066;-51
2023/03/19 10:55:12;;;;;;;12.65;11.35;;;15.50;99.90;;;;;;4983856;28;20054;-51
2023/03/19 10:57:44;;;;;;;13.40;12.10;;;15.70;99.90;;;;;;4989179;28;20053;-51
2023/03/19 11:00:18;;;;;;;13.23;11.93;;;15.70;99.90;;;;;;4993957;28;20054;-50
2023/03/19 11:02:50;;;;;;;13.85;12.45;;;15.60;99.90;;;;;;4993570;28;20042;-50
2023/03/19 11:05:42;;;;;;;13.75;12.35;;;15.70;99.90;;;;;;4990235;28;20093;-53
2023/03/19 11:08:19;;;;;;;13.63;12.07;;;15.50;99.90;;;;;;4991161;28;20050;-51
2023/03/19 11:10:48;;;;;;;13.05;11.75;;;15.50;99.90;;;;;;4991259;28;20031;-49
2023/03/19 11:13:24;;;;;;;13.85;12.55;;;15.40;99.90;;;;;;4992867;28;20042;-48
2023/03/19 11:15:52;;;;;;;14.00;12.60;;;15.40;99.90;;;;;;4992899;28;20749;-47
2023/03/19 11:18:20;;;;;;;13.30;12.00;;;15.70;99.90;;;;;;4992851;28;20103;-48
2023/03/19 11:20:58;;;;;;;13.43;12.13;;;15.90;99.90;;;;;;4993195;28;20046;-48
2023/03/19 11:23:36;;;;;;;13.77;12.38;;;15.80;99.90;;;;;;4987488;28;20058;-48
2023/03/19 11:26:02;;;;;;;;;;;15.80;99.90;;;;;;4989085;28;20049;-50
2023/03/19 11:28:32;;;;;;;13.80;12.50;;;15.80;99.90;;;;;;4993385;28;19929;-50
2023/03/19 11:31:04;;;;;;;11.60;10.55;;;15.80;99.90;;;;;;4982489;28;20488;-50
2023/03/19 11:33:49;;;;;;;12.60;11.40;;;15.90;99.90;;;;;;4988915;28;20096;-50
2023/03/19 11:36:20;;;;;;;13.15;11.77;;;15.90;99.90;;;;;;4987813;28;20061;-51
2023/03/19 11:38:55;;;;;;;12.60;11.43;;;16.10;99.90;;;;;;5008186;28;20100;-49
2023/03/19 11:41:39;;;;;;;13.23;12.02;;;16.20;99.90;;;;;;4993345;28;20096;-48
2023/03/19 11:44:21;;;;;;;13.75;12.30;;;16.00;99.90;;;;;;4992048;28;20042;-51
2023/03/19 11:46:55;;;;;;;12.80;10.82;;;16.00;99.90;;;;;;4996136;28;20053;-51
2023/03/19 11:49:36;;;;;;;12.93;11.63;;;16.00;99.90;;;;;;4993093;28;20105;-49
2023/03/19 11:52:23;;;;;;;12.75;11.50;;;16.10;99.90;;;;;;4993103;28;20043;-50
2023/03/19 11:55:03;;;;;;;13.10;11.77;;;16.20;99.90;;;;;;4986376;28;20053;-49
2023/03/19 11:57:45;;;;;;;12.77;11.57;;;16.20;99.90;;;;;;4992852;28;20062;-50
2023/03/19 12:00:24;;;;;;;12.18;10.90;;;16.20;99.90;;;;;;4991910;28;20073;-48
2023/03/19 12:03:05;;;;;;;11.85;10.68;;;16.20;99.90;;;;;;5004068;28;20050;-48
2023/03/19 12:05:42;;;;;;;12.40;11.10;;;16.20;99.90;;;;;;4995281;28;20085;-48
2023/03/19 12:08:30;;;;;;;11.23;10.13;;;16.30;99.90;;;;;;4998004;28;20042;-48
2023/03/19 12:11:07;;;;;;;;;;;16.20;99.90;;;;;;4993370;28;20050;-49
2023/03/19 12:13:59;;;;;;;11.85;10.60;;;16.10;99.90;;;;;;4995761;28;19928;-51
2023/03/19 12:16:51;;;;;;;12.20;11.00;;;16.20;99.90;;;;;;5011015;28;20042;-51
2023/03/19 12:19:27;;;;;;;11.73;10.63;;;15.80;99.90;;;;;;5004907;28;20092;-49
2023/03/19 12:21:59;;;;;;;11.50;10.35;;;16.00;99.90;;;;;;5005123;28;20477;-50
2023/03/19 12:24:24;;;;;;;11.18;10.07;;;16.10;99.90;;;;;;4991449;28;20046;-50
2023/03/19 12:27:08;;;;;;;11.23;10.02;;;16.20;99.90;;;;;;4996728;28;20054;-52
2023/03/19 12:30:13;;;;;;;11.32;10.02;;;16.20;99.90;;;;;;5003320;28;20404;-50
2023/03/19 12:32:54;;;;;;;11.07;9.98;;;16.40;99.90;;;;;;4991069;28;20136;-50
2023/03/19 12:35:28;;;;;;;11.70;10.60;;;16.40;99.90;;;;;;4983951;28;20058;-52
2023/03/19 12:38:16;;;;;;;11.80;10.40;;;16.60;99.90;;;;;;4989733;28;20045;-49
2023/03/19 12:40:58;;;;;;;;;;;16.50;99.90;;;;;;5002116;28;20069;-50
2023/03/19 12:43:50;;;;;;;11.65;10.45;;;16.40;99.90;;;;;;4985895;28;20317;-53
2023/03/19 12:46:24;;;;;;;11.77;10.52;;;16.60;99.90;;;;;;4986264;28;20557;-49